Aviation Digital Data Service (ADDS)

Output produced by METARs form (0641 UTC 27 March 2017)
found at http://www.aviationweather.gov/adds/metars/
 
KJAC 270520Z 2706/2806 20006KT P6SM VCSH SCT030 BKN050 
     FM271500 19007KT 6SM -RASN SCT020 BKN035 
     FM272100 17006KT 5SM -RASN SCT010 BKN020 
     FM280300 35007KT P6SM VCSH SCT025 BKN040 AMD LTD TO CLD VIS AND WIND
       
KJAN 270545Z 2706/2806 18008KT P6SM FEW090 
     FM270630 18007KT P6SM BKN012 
     FM270800 18007KT P6SM BKN008 
     FM271300 18010G19KT P6SM BKN015 
     FM271600 19013G19KT P6SM BKN025 
     FM271900 20013G20KT P6SM SCT040 
     FM272200 20011KT P6SM VCTS BKN050CB
       
KJAX 270535Z 2706/2806 00000KT P6SM SKC 
     TEMPO 2710/2712 3SM BR 
     FM271400 16005KT P6SM SCT040 
     FM271800 10008KT P6SM SCT050 SCT250 
     FM280000 16005KT P6SM SCT050
       
KJBR 270530Z 2706/2806 11003KT P6SM SCT100 BKN250 
     FM271000 18006KT P6SM VCTS BKN008CB OVC015 
     FM271100 20008KT 3SM TSRA BKN020CB OVC100 
     FM271500 20015G25KT P6SM SHRA VCTS BKN020CB 
     FM271900 22015G28KT 5SM SHRA BKN025 OVC050 
     FM280000 25010KT P6SM OVC025
       
KJFK 270541Z 2706/2812 06009KT 2SM -DZ BR OVC005 
     FM270700 09006KT 1SM -RADZ BR OVC004 
     FM271400 17009KT 2SM -RA BR OVC006 
     FM271600 19009KT 4SM -RA BR OVC015 
     FM271900 20009KT P6SM BKN030 
     FM272100 20008KT 1SM BR BKN050 
     FM280300 19003KT 5SM BR OVC025 
     FM280600 17003KT 1/2SM FG OVC004
       
KJER 270520Z 2706/2806 07010KT P6SM OVC050 
     FM271400 25012KT 6SM -RA BR OVC040 
     FM272000 25019G29KT P6SM BKN070
       
KJHW 270520Z 2706/2806 17008KT 5SM -SHRA OVC007 
     FM270900 17007KT 4SM BR VCSH OVC007 
     FM271500 22007KT P6SM OVC007 
     FM272100 26004KT P6SM BKN012 
     FM272300 VRB03KT P6SM BKN012 AMD LTD TO CLD VIS AND WIND
       
KJMS 270520Z 2706/2806 15004KT P6SM SCT100 
     FM271000 00000KT 4SM BR SCT050 
     FM271100 00000KT 2SM BR SCT050 
     FM271200 00000KT 1 1/2SM BR SCT050 
     FM271500 00000KT 2SM BR SCT060 
     FM271600 VRB03KT P6SM SCT090 
     FM272100 11007KT P6SM SCT250
       
KJST 270611Z 2706/2806 16007KT P6SM VCSH BKN007 OVC050 
     FM270900 19005KT P6SM VCSH BKN010 OVC050 
     FM271500 23010KT P6SM BKN025 OVC050 
     FM271800 26010KT P6SM SCT025 BKN050 
     FM280000 VRB03KT P6SM OVC050